Time;durP1;ratioP1;P1;durP2;ratioP2;P2;SDS_P1;SDS_P2;PMS_P1;PMS_P2;Temp;Humidity;BMP_temperature;BMP_pressure;BME280_temperature;BME280_humidity;BME280_pressure;Samples;Min_cycle;Max_cycle;Signal;HPM_P1;HPM_P2
2021/05/07 00:02:29;;;;;;;36.00;17.88;;;;;;;4.26;82.30;99421.41;10308934;28;20235;-70
2021/05/07 00:07:31;;;;;;;33.37;18.57;;;;;;;3.95;82.61;99413.75;10309519;28;20304;-71
2021/05/07 00:12:33;;;;;;;33.67;17.20;;;;;;;3.68;83.76;99424.44;10307468;28;20242;-71
2021/05/07 00:17:35;;;;;;;29.85;15.32;;;;;;;3.73;83.13;99429.47;10273200;28;20239;-71
2021/05/07 00:22:40;;;;;;;19.57;10.53;;;;;;;3.76;81.56;99442.53;10269156;28;20567;-71
2021/05/07 00:27:58;;;;;;;23.47;9.97;;;;;;;3.33;83.29;99461.31;10266009;28;20321;-72
2021/05/07 00:33:02;;;;;;;19.30;11.97;;;;;;;3.17;83.74;99458.81;10268939;28;20240;-71
2021/05/07 00:38:04;;;;;;;18.43;10.43;;;;;;;2.80;82.86;99470.94;10268245;28;20351;-72
2021/05/07 00:43:07;;;;;;;20.77;11.00;;;;;;;2.94;83.25;99456.81;10269500;28;20262;-72
2021/05/07 00:48:12;;;;;;;17.70;10.80;;;;;;;3.03;82.63;99464.16;10263987;28;20228;-73
2021/05/07 00:53:16;;;;;;;20.00;11.00;;;;;;;2.82;82.65;99461.06;10283759;28;20681;-72
2021/05/07 00:58:19;;;;;;;22.53;12.37;;;;;;;3.09;82.11;99454.94;10282157;28;20248;-72
2021/05/07 01:03:23;;;;;;;24.80;12.30;;;;;;;2.82;82.11;99469.88;10264556;28;20250;-71
2021/05/07 01:08:28;;;;;;;20.10;11.57;;;;;;;3.14;82.31;99474.09;10264718;28;21447;-71
2021/05/07 01:13:33;;;;;;;17.33;9.40;;;;;;;2.83;81.18;99482.19;10268040;28;20254;-71
2021/05/07 01:18:42;;;;;;;16.13;9.33;;;;;;;2.98;81.54;99487.47;10307939;28;20258;-70
2021/05/07 01:23:45;;;;;;;16.80;9.00;;;;;;;3.12;81.73;99486.59;10304489;28;20316;-70
2021/05/07 01:28:47;;;;;;;18.50;10.03;;;;;;;3.14;81.64;99482.03;10303344;28;20242;-71
2021/05/07 01:33:51;;;;;;;22.50;11.10;;;;;;;3.21;81.60;99513.41;10305468;28;20339;-71
2021/05/07 01:38:53;;;;;;;22.23;11.93;;;;;;;3.31;81.87;99512.78;10320260;28;20239;-70
2021/05/07 01:43:56;;;;;;;23.97;12.03;;;;;;;3.41;81.75;99521.88;10309113;28;20238;-70
2021/05/07 01:48:59;;;;;;;22.23;11.83;;;;;;;3.23;81.30;99524.75;10313759;28;20655;-71
2021/05/07 01:54:02;;;;;;;26.17;12.83;;;;;;;3.00;81.46;99531.53;10312966;28;20234;-71
2021/05/07 01:59:04;;;;;;;24.37;12.97;;;;;;;3.01;81.31;99529.72;10309170;28;20239;-70
2021/05/07 02:04:06;;;;;;;26.23;12.73;;;;;;;2.91;80.89;99541.84;10313227;28;20278;-70
2021/05/07 02:09:16;;;;;;;23.37;12.30;;;;;;;2.65;80.57;99541.69;10325175;28;21417;-70
2021/05/07 02:14:18;;;;;;;24.27;10.63;;;;;;;2.57;80.97;99547.44;10303883;28;20518;-70
2021/05/07 02:19:20;;;;;;;22.83;11.20;;;;;;;2.59;81.06;99564.13;10287572;28;20441;-70
2021/05/07 02:24:23;;;;;;;22.20;11.70;;;;;;;2.70;81.37;99555.50;10271157;28;20721;-71
2021/05/07 02:29:25;;;;;;;20.00;11.27;;;;;;;2.79;81.04;99559.41;10271266;28;20244;-70
2021/05/07 02:34:27;;;;;;;25.57;12.70;;;;;;;2.74;81.05;99572.97;10271875;28;20243;-70
2021/05/07 02:39:30;;;;;;;24.40;13.10;;;;;;;2.68;81.46;99565.34;10286687;28;20244;-70
2021/05/07 02:44:32;;;;;;;26.77;12.37;;;;;;;2.65;81.67;99567.34;10273079;28;20231;-70
2021/05/07 02:49:35;;;;;;;26.20;12.33;;;;;;;2.82;81.58;99572.47;10269254;28;20847;-71
2021/05/07 02:54:38;;;;;;;24.67;12.80;;;;;;;2.93;81.22;99562.03;10271777;28;20261;-71
2021/05/07 02:59:40;;;;;;;28.27;14.50;;;;;;;3.02;81.10;99555.34;10271409;28;21845;-71
2021/05/07 03:04:42;;;;;;;30.93;14.63;;;;;;;3.05;80.92;99571.06;10285929;28;20228;-71
2021/05/07 03:09:45;;;;;;;32.63;14.60;;;;;;;3.19;81.14;99556.91;10270067;28;20254;-70
2021/05/07 03:14:47;;;;;;;27.30;13.10;;;;;;;3.27;81.18;99566.09;10282835;28;20235;-69
2021/05/07 03:19:49;;;;;;;32.13;16.23;;;;;;;2.94;81.77;99570.88;10309470;28;20342;-70
2021/05/07 03:24:52;;;;;;;31.10;14.90;;;;;;;3.17;81.87;99578.22;10311527;28;20235;-70
2021/05/07 03:29:54;;;;;;;33.53;15.90;;;;;;;3.32;81.56;99580.84;10308848;28;20620;-70
2021/05/07 03:34:56;;;;;;;37.90;16.33;;;;;;;3.39;81.69;99587.50;10310439;28;20243;-69
2021/05/07 03:39:58;;;;;;;39.17;17.83;;;;;;;3.04;82.56;99593.22;10310160;28;20231;-69
2021/05/07 03:45:00;;;;;;;38.27;19.33;;;;;;;3.16;82.08;99600.41;10310051;28;20254;-70
2021/05/07 03:50:02;;;;;;;36.03;17.23;;;;;;;3.31;82.30;99600.41;10307834;28;20385;-70
2021/05/07 03:55:07;;;;;;;34.20;17.37;;;;;;;3.41;81.90;99605.03;10308172;28;20761;-71
2021/05/07 04:00:11;;;;;;;35.97;16.97;;;;;;;3.34;81.74;99611.66;10308140;28;20247;-70
2021/05/07 04:05:17;;;;;;;31.87;15.30;;;;;;;3.21;81.83;99621.34;10309038;28;20238;-71
2021/05/07 04:10:21;;;;;;;35.03;17.83;;;;;;;3.16;81.73;99631.41;10309076;28;20379;-71
2021/05/07 04:15:23;;;;;;;30.83;14.17;;;;;;;2.92;81.75;99634.63;10292639;28;20232;-71
2021/05/07 04:20:25;;;;;;;40.23;16.97;;;;;;;3.04;81.58;99648.94;10268409;28;20239;-71
2021/05/07 04:25:28;;;;;;;34.37;15.20;;;;;;;3.08;81.16;99653.13;10267968;28;20751;-71
2021/05/07 04:30:30;;;;;;;34.03;16.63;;;;;;;3.06;81.38;99655.00;10267774;28;20239;-70
2021/05/07 04:35:32;;;;;;;40.53;18.70;;;;;;;3.03;81.28;99664.00;10267363;28;20892;-71
2021/05/07 04:40:38;;;;;;;34.00;16.50;;;;;;;3.01;81.05;99671.19;10266992;28;20322;-70
2021/05/07 04:45:40;;;;;;;34.43;16.57;;;;;;;2.88;81.54;99670.25;10267780;28;20902;-71
2021/05/07 04:50:43;;;;;;;33.77;16.80;;;;;;;3.05;81.50;99679.84;10265971;28;20367;-71
2021/05/07 04:55:45;;;;;;;37.60;17.63;;;;;;;3.15;81.41;99691.59;10267598;28;20343;-72
2021/05/07 05:00:47;;;;;;;37.07;17.20;;;;;;;3.24;81.45;99712.28;10268253;28;20234;-71
2021/05/07 05:05:52;;;;;;;35.70;17.37;;;;;;;3.51;81.87;99716.81;10268238;28;20368;-70
2021/05/07 05:10:56;;;;;;;37.40;18.60;;;;;;;3.54;81.56;99716.63;10268174;28;20285;-70
2021/05/07 05:15:58;;;;;;;36.20;17.60;;;;;;;3.56;82.00;99719.19;10303010;28;20227;-70
2021/05/07 05:21:01;;;;;;;36.07;18.90;;;;;;;3.35;81.97;99724.88;10312449;28;20735;-70
2021/05/07 05:26:04;;;;;;;38.23;17.53;;;;;;;3.85;81.54;99733.28;10314462;28;20335;-70
2021/05/07 05:31:06;;;;;;;39.03;18.27;;;;;;;4.00;81.67;99734.09;10314533;28;20772;-71
2021/05/07 05:36:09;;;;;;;34.77;17.00;;;;;;;4.07;81.74;99730.97;10312863;28;20230;-71
2021/05/07 05:41:11;;;;;;;33.93;16.40;;;;;;;4.21;81.23;99739.84;10313942;28;20235;-71
2021/05/07 05:46:13;;;;;;;32.50;16.88;;;;;;;4.04;81.26;99743.59;10314426;28;20246;-71
2021/05/07 05:51:15;;;;;;;28.73;15.03;;;;;;;3.99;81.04;99754.53;10313528;28;20297;-71
2021/05/07 05:56:18;;;;;;;27.63;14.70;;;;;;;4.06;81.08;99760.28;10314464;28;20729;-71
2021/05/07 06:01:20;;;;;;;28.77;15.30;;;;;;;4.34;81.47;99773.53;10311310;28;20790;-71
2021/05/07 06:06:22;;;;;;;30.53;15.63;;;;;;;4.56;80.67;99767.66;10314761;28;20558;-72
2021/05/07 06:11:24;;;;;;;25.30;13.77;;;;;;;4.08;79.09;99782.31;10313250;28;20913;-71
2021/05/07 06:16:27;;;;;;;24.27;13.20;;;;;;;4.45;80.72;99778.16;10285953;28;20638;-71
2021/05/07 06:21:29;;;;;;;20.07;11.17;;;;;;;4.51;78.96;99779.56;10272420;28;20270;-71
2021/05/07 06:26:32;;;;;;;23.13;12.77;;;;;;;5.06;80.12;99795.41;10273082;28;20565;-71
2021/05/07 06:31:34;;;;;;;18.40;10.37;;;;;;;5.18;79.95;99792.84;10270076;28;20260;-71
2021/05/07 06:36:36;;;;;;;19.23;10.52;;;;;;;4.55;77.78;99792.56;10272835;28;20265;-71
2021/05/07 06:41:39;;;;;;;16.67;9.35;;;;;;;4.05;77.07;99809.94;10271620;28;20302;-71
2021/05/07 06:46:41;;;;;;;15.10;9.05;;;;;;;4.76;77.37;99810.72;10231558;28;20232;-71
2021/05/07 06:51:43;;;;;;;12.33;7.80;;;;;;;4.81;75.26;99820.09;10231844;28;20245;-71
2021/05/07 06:56:46;;;;;;;12.40;7.93;;;;;;;4.43;75.67;99827.06;10264278;28;20635;-70
2021/05/07 07:01:48;;;;;;;13.70;8.23;;;;;;;4.76;75.89;99824.88;10271964;28;20243;-70
2021/05/07 07:06:50;;;;;;;11.97;8.00;;;;;;;5.47;76.49;99833.50;10270633;28;20243;-72
2021/05/07 07:11:53;;;;;;;11.23;7.07;;;;;;;5.53;75.91;99835.72;10269915;28;20250;-72
2021/05/07 07:16:55;;;;;;;14.55;7.60;;;;;;;5.41;72.31;99841.91;10299917;28;20736;-70
2021/05/07 07:21:57;;;;;;;10.23;6.63;;;;;;;5.39;74.47;99843.81;10309843;28;20739;-72
2021/05/07 07:27:01;;;;;;;10.05;6.75;;;;;;;5.46;73.48;99853.94;10309871;28;20235;-71
2021/05/07 07:32:03;;;;;;;11.38;6.85;;;;;;;5.56;70.79;99856.81;10310517;28;20250;-71
2021/05/07 07:37:05;;;;;;;11.38;7.40;;;;;;;5.49;71.46;99863.56;10311181;28;20242;-71
2021/05/07 07:42:08;;;;;;;9.98;7.00;;;;;;;4.91;70.33;99881.56;10310222;28;20239;-71
2021/05/07 07:47:11;;;;;;;11.10;7.43;;;;;;;4.70;69.74;99885.63;10309957;28;20910;-72
2021/05/07 07:52:15;;;;;;;12.23;6.57;;;;;;;5.42;69.59;99889.72;10310585;28;20720;-72
2021/05/07 07:57:18;;;;;;;7.57;5.50;;;;;;;6.18;66.48;99883.59;10310304;28;20684;-71
2021/05/07 08:02:21;;;;;;;5.68;3.95;;;;;;;6.08;64.91;99892.34;10295998;28;20243;-72
2021/05/07 08:07:23;;;;;;;4.50;3.88;;;;;;;7.14;63.06;99903.44;10266560;28;20917;-72
2021/05/07 08:12:26;;;;;;;4.93;3.80;;;;;;;7.32;60.49;99918.06;10241774;28;20252;-72
2021/05/07 08:17:28;;;;;;;4.20;3.80;;;;;;;6.35;61.66;99917.06;10254132;28;21823;-72
2021/05/07 08:22:32;;;;;;;4.63;4.00;;;;;;;6.25;61.13;99944.50;10233215;28;20269;-72
2021/05/07 08:27:35;;;;;;;6.57;4.25;;;;;;;6.87;59.26;99963.22;10226261;28;20243;-72
2021/05/07 08:32:37;;;;;;;3.40;3.10;;;;;;;6.45;58.25;99973.31;10229103;28;20327;-72
2021/05/07 08:37:43;;;;;;;5.57;3.70;;;;;;;7.00;60.02;99980.06;10228902;28;20804;-72
2021/05/07 08:42:46;;;;;;;3.78;3.47;;;;;;;6.54;59.79;99990.47;10229446;28;20267;-72
2021/05/07 08:47:52;;;;;;;4.30;3.75;;;;;;;6.82;60.48;99998.22;10227984;28;20689;-72
2021/05/07 08:52:54;;;;;;;4.35;3.20;;;;;;;7.58;59.48;100011.50;10229318;28;20302;-72
2021/05/07 08:57:57;;;;;;;2.40;2.20;;;;;;;7.17;56.42;100013.56;10229652;28;20804;-72
2021/05/07 09:03:05;;;;;;;4.82;2.50;;;;;;;7.25;56.89;100021.88;10228903;28;20239;-72
2021/05/07 09:08:08;;;;;;;2.50;2.30;;;;;;;6.61;56.26;100023.81;10242158;28;20622;-73
2021/05/07 09:13:12;;;;;;;3.45;2.60;;;;;;;7.11;56.53;100035.38;10257862;28;20349;-72
2021/05/07 09:18:16;;;;;;;2.63;2.42;;;;;;;6.68;59.20;100051.75;10306855;28;20245;-72
2021/05/07 09:23:18;;;;;;;2.95;2.58;;;;;;;6.34;62.24;100059.44;10309593;28;20246;-72
2021/05/07 09:28:21;;;;;;;3.45;3.15;;;;;;;6.32;63.69;100061.34;10307931;28;20231;-72
2021/05/07 09:33:24;;;;;;;2.67;2.47;;;;;;;6.54;61.04;100068.72;10307126;28;20628;-72
2021/05/07 09:38:32;;;;;;;2.50;2.30;;;;;;;7.93;54.91;100068.53;10305825;28;20746;-72
2021/05/07 09:43:35;;;;;;;3.72;2.58;;;;;;;8.01;55.74;100065.28;10266474;28;20241;-72
2021/05/07 09:48:40;;;;;;;2.78;2.40;;;;;;;9.38;54.38;100068.88;10226328;28;20240;-72
2021/05/07 09:53:42;;;;;;;2.85;2.58;;;;;;;8.57;53.29;100081.53;10227627;28;20240;-72
2021/05/07 09:58:45;;;;;;;2.40;2.20;;;;;;;8.36;54.03;100105.44;10241398;28;20312;-72
2021/05/07 10:03:47;;;;;;;2.35;2.15;;;;;;;8.15;52.91;100120.44;10228417;28;20240;-72
2021/05/07 10:08:49;;;;;;;2.10;1.90;;;;;;;9.02;51.94;100112.84;10232978;28;20357;-72
2021/05/07 10:13:54;;;;;;;2.45;2.25;;;;;;;8.76;50.02;100122.94;10244907;28;21469;-72
2021/05/07 10:19:00;;;;;;;6.88;2.40;;;;;;;8.39;53.35;100123.94;10313029;28;20237;-72
2021/05/07 10:24:03;;;;;;;2.95;2.65;;;;;;;10.09;48.65;100125.66;10314842;28;21368;-72
2021/05/07 10:29:17;;;;;;;3.72;2.20;;;;;;;11.48;45.37;100134.31;10312527;28;20355;-72
2021/05/07 10:34:19;;;;;;;2.40;2.20;;;;;;;11.76;44.45;100131.84;10313451;28;20587;-71
2021/05/07 10:39:32;;;;;;;8.68;3.78;;;;;;;11.48;44.90;100142.38;10312979;28;20306;-71
2021/05/07 10:44:42;;;;;;;2.75;2.30;;;;;;;11.47;44.61;100148.75;10311122;28;20269;-71
2021/05/07 10:49:45;;;;;;;5.50;3.15;;;;;;;11.00;45.32;100147.53;10310082;28;20735;-71
2021/05/07 10:54:50;;;;;;;2.40;2.13;;;;;;;10.14;48.01;100157.47;10313877;28;20243;-70
2021/05/07 10:59:53;;;;;;;2.40;2.20;;;;;;;10.15;48.53;100165.41;10309584;28;20747;-71
2021/05/07 11:04:56;;;;;;;3.08;2.17;;;;;;;11.94;45.76;100161.66;10313944;28;20238;-71
2021/05/07 11:10:01;;;;;;;2.67;2.00;;;;;;;11.55;43.88;100174.16;10310440;28;20358;-70
2021/05/07 11:15:05;;;;;;;2.10;1.90;;;;;;;13.44;40.94;100165.69;10294462;28;20243;-71
2021/05/07 11:20:08;;;;;;;2.00;1.90;;;;;;;13.32;39.65;100172.22;10270024;28;20247;-71
2021/05/07 11:25:21;;;;;;;2.00;1.90;;;;;;;11.41;44.42;100180.72;10271763;28;20243;-71
2021/05/07 11:30:25;;;;;;;2.88;2.40;;;;;;;10.25;46.88;100202.22;10270622;28;20251;-71
2021/05/07 11:35:27;;;;;;;2.88;2.25;;;;;;;10.05;47.85;100209.22;10269947;28;20247;-71
2021/05/07 11:40:35;;;;;;;3.05;2.80;;;;;;;10.65;47.21;100215.88;10270804;28;20239;-71
2021/05/07 11:45:40;;;;;;;4.07;2.53;;;;;;;12.13;45.45;100203.91;10271886;28;20266;-71
2021/05/07 11:50:44;;;;;;;2.30;1.90;;;;;;;11.56;42.21;100208.97;10269439;28;20262;-71
2021/05/07 11:55:46;;;;;;;2.60;2.40;;;;;;;12.19;40.53;100214.13;10270879;28;20294;-72
2021/05/07 12:00:53;;;;;;;2.63;2.42;;;;;;;11.77;43.23;100213.44;10268069;28;20697;-71
2021/05/07 12:05:55;;;;;;;2.40;1.85;;;;;;;11.12;43.72;100221.75;10267828;28;20227;-72
2021/05/07 12:11:08;;;;;;;2.15;1.80;;;;;;;12.17;42.42;100226.84;10268991;28;20244;-72
2021/05/07 12:16:11;;;;;;;1.95;1.80;;;;;;;12.45;40.17;100219.00;10291613;28;20243;-72
2021/05/07 12:21:13;;;;;;;3.83;1.70;;;;;;;12.60;35.88;100228.38;10308487;28;20242;-72
2021/05/07 12:26:17;;;;;;;1.65;1.55;;;;;;;11.32;39.22;100240.69;10308481;28;20317;-71
2021/05/07 12:31:28;;;;;;;2.35;1.85;;;;;;;11.17;40.76;100248.25;10307506;28;20252;-72
2021/05/07 12:36:30;;;;;;;1.95;1.85;;;;;;;10.13;42.89;100252.41;10305311;28;20239;-71
2021/05/07 12:41:32;;;;;;;1.90;1.75;;;;;;;9.95;44.91;100246.69;10307678;28;21488;-71
2021/05/07 12:46:35;;;;;;;2.67;2.38;;;;;;;10.09;43.80;100246.44;10307600;28;20227;-72
2021/05/07 12:51:37;;;;;;;4.13;2.17;;;;;;;10.88;43.96;100264.13;10307208;28;20246;-71
2021/05/07 12:56:41;;;;;;;3.25;2.35;;;;;;;11.61;41.36;100273.97;10271903;28;20240;-72
2021/05/07 13:01:47;;;;;;;2.20;2.00;;;;;;;12.71;39.02;100265.13;10259333;28;20620;-72
2021/05/07 13:06:48;;;;;;;2.17;1.85;;;;;;;10.71;41.27;100277.13;10268072;28;20284;-70
2021/05/07 13:11:50;;;;;;;2.17;1.88;;;;;;;9.68;42.30;100289.94;10267303;28;20240;-71
2021/05/07 13:16:53;;;;;;;2.63;2.40;;;;;;;9.85;43.63;100299.38;10249202;28;20240;-71
2021/05/07 13:21:55;;;;;;;2.10;1.90;;;;;;;11.78;41.08;100299.41;10261062;28;20585;-71
2021/05/07 13:26:58;;;;;;;2.13;1.70;;;;;;;13.53;37.15;100309.66;10228171;28;20232;-71
2021/05/07 13:32:02;;;;;;;2.08;1.80;;;;;;;12.40;37.29;100297.56;10227405;28;21530;-71
2021/05/07 13:37:04;;;;;;;2.30;2.10;;;;;;;10.92;42.04;100297.84;10224437;28;20248;-70
2021/05/07 13:42:06;;;;;;;2.75;2.35;;;;;;;13.08;39.27;100297.59;10231025;28;20243;-70
2021/05/07 13:47:09;;;;;;;2.60;2.40;;;;;;;13.16;37.35;100311.22;10234133;28;20327;-71
2021/05/07 13:52:11;;;;;;;2.50;2.30;;;;;;;12.80;37.65;100300.16;10246805;28;20235;-71
2021/05/07 13:57:13;;;;;;;1.90;1.80;;;;;;;11.86;36.76;100306.81;10272473;28;20242;-71
2021/05/07 14:02:16;;;;;;;3.63;1.88;;;;;;;10.96;38.85;100323.47;10274389;28;20236;-71
2021/05/07 14:07:18;;;;;;;2.08;1.70;;;;;;;9.72;40.09;100332.50;10273282;28;20246;-70
2021/05/07 14:12:21;;;;;;;3.85;2.10;;;;;;;9.91;39.56;100349.88;10267477;28;20234;-71
2021/05/07 14:17:24;;;;;;;2.60;2.17;;;;;;;10.08;42.03;100346.72;10303500;28;20602;-70
2021/05/07 14:22:27;;;;;;;2.45;2.25;;;;;;;10.15;45.71;100357.81;10313462;28;20231;-71
2021/05/07 14:27:29;;;;;;;3.78;2.95;;;;;;;10.31;45.06;100365.47;10311381;28;20680;-71
2021/05/07 14:32:32;;;;;;;4.15;2.95;;;;;;;11.71;43.53;100358.31;10281581;28;20636;-71
2021/05/07 14:37:34;;;;;;;3.45;3.10;;;;;;;12.05;40.82;100367.97;10261760;28;20298;-71
2021/05/07 14:42:36;;;;;;;3.28;2.97;;;;;;;10.44;43.88;100362.66;10274353;28;20232;-71
2021/05/07 14:47:39;;;;;;;4.15;3.15;;;;;;;10.57;45.11;100379.50;10262275;28;20239;-70
2021/05/07 14:52:41;;;;;;;3.30;3.00;;;;;;;11.62;43.18;100363.63;10236405;28;20248;-71
2021/05/07 14:57:43;;;;;;;5.25;3.13;;;;;;;12.41;40.35;100373.81;10256256;28;20248;-70
2021/05/07 15:02:46;;;;;;;4.05;3.38;;;;;;;12.07;40.35;100364.16;10270976;28;20232;-71
2021/05/07 15:07:49;;;;;;;2.42;2.22;;;;;;;12.03;40.00;100369.94;10270276;28;20238;-71
2021/05/07 15:12:51;;;;;;;4.57;2.95;;;;;;;13.88;36.43;100357.59;10271546;28;20244;-71
2021/05/07 15:17:54;;;;;;;2.92;2.58;;;;;;;13.05;37.83;100351.81;10307881;28;20235;-71
2021/05/07 15:22:56;;;;;;;3.90;2.30;;;;;;;12.20;38.37;100388.16;10236389;28;20879;-71
2021/05/07 15:27:58;;;;;;;2.70;2.47;;;;;;;12.91;40.49;100366.56;10229083;28;20236;-71
2021/05/07 15:33:01;;;;;;;4.43;3.08;;;;;;;13.09;39.47;100373.97;10229489;28;20232;-71
2021/05/07 15:38:04;;;;;;;3.20;2.85;;;;;;;13.06;38.23;100377.81;10229848;28;20284;-71
2021/05/07 15:43:07;;;;;;;3.03;2.70;;;;;;;12.78;37.37;100372.22;10228497;28;21197;-71
2021/05/07 15:48:10;;;;;;;4.05;2.95;;;;;;;12.31;38.87;100387.25;10230328;28;20721;-71
2021/05/07 15:53:14;;;;;;;6.75;3.63;;;;;;;11.56;40.38;100385.66;10228180;28;20351;-71
2021/05/07 15:58:16;;;;;;;5.22;3.50;;;;;;;13.75;36.93;100393.00;10228861;28;20765;-71
2021/05/07 16:03:18;;;;;;;3.38;2.30;;;;;;;11.79;39.53;100403.38;10229161;28;20240;-71
2021/05/07 16:08:21;;;;;;;3.42;2.38;;;;;;;11.10;39.86;100408.31;10228458;28;20251;-71
2021/05/07 16:13:23;;;;;;;2.33;2.08;;;;;;;12.07;37.70;100401.00;10232020;28;20713;-71
2021/05/07 16:18:28;;;;;;;3.35;1.65;;;;;;;13.14;34.46;100409.47;10307902;28;20252;-70
2021/05/07 16:23:31;;;;;;;2.47;1.95;;;;;;;12.41;35.65;100398.91;10307546;28;20708;-71
2021/05/07 16:28:33;;;;;;;3.42;1.60;;;;;;;13.33;34.14;100401.38;10308358;28;20239;-70
2021/05/07 16:33:36;;;;;;;2.22;1.90;;;;;;;12.42;36.73;100413.22;10308676;28;20247;-71
2021/05/07 16:38:42;;;;;;;2.92;2.10;;;;;;;13.77;33.51;100418.00;10308601;28;20471;-71
2021/05/07 16:43:44;;;;;;;2.10;1.75;;;;;;;16.41;30.50;100410.72;10297388;28;20290;-71
2021/05/07 16:48:47;;;;;;;1.90;1.70;;;;;;;16.58;31.48;100409.75;10308338;28;20258;-70
2021/05/07 16:53:49;;;;;;;2.58;1.73;;;;;;;17.36;29.51;100407.78;10322299;28;20231;-70
2021/05/07 16:58:51;;;;;;;2.08;1.88;;;;;;;19.03;27.46;100407.97;10307289;28;21424;-70
2021/05/07 17:03:53;;;;;;;4.45;2.03;;;;;;;20.09;25.80;100418.03;10305705;28;20239;-70
2021/05/07 17:09:01;;;;;;;2.70;1.75;;;;;;;20.93;24.65;100425.97;10307829;28;20250;-70
2021/05/07 17:14:04;;;;;;;1.75;1.50;;;;;;;19.45;26.43;100421.13;10257009;28;20719;-70
2021/05/07 17:19:07;;;;;;;1.50;1.40;;;;;;;17.29;28.50;100426.63;10257989;28;20243;-71
2021/05/07 17:24:09;;;;;;;2.80;1.92;;;;;;;16.75;28.84;100426.09;10242880;28;21397;-70
2021/05/07 17:29:11;;;;;;;2.50;1.65;;;;;;;14.60;33.05;100434.41;10245694;28;20246;-71
2021/05/07 17:34:14;;;;;;;4.03;2.10;;;;;;;12.02;36.60;100444.47;10265610;28;20246;-71
2021/05/07 17:39:16;;;;;;;3.88;2.17;;;;;;;12.15;37.46;100447.81;10272757;28;20239;-71
2021/05/07 17:44:18;;;;;;;5.05;3.75;;;;;;;11.47;41.42;100447.34;10274621;28;20604;-71
2021/05/07 17:49:21;;;;;;;6.10;4.55;;;;;;;10.56;45.27;100459.22;10273135;28;20570;-71
2021/05/07 17:54:23;;;;;;;5.72;4.25;;;;;;;10.45;45.99;100458.34;10272150;28;20238;-71
2021/05/07 17:59:25;;;;;;;7.97;5.05;;;;;;;10.31;46.44;100459.44;10265905;28;20698;-71
2021/05/07 18:04:28;;;;;;;7.00;4.25;;;;;;;9.90;47.21;100464.41;10252022;28;20240;-72
2021/05/07 18:09:30;;;;;;;6.47;4.97;;;;;;;10.11;47.40;100469.91;10272119;28;20235;-72
2021/05/07 18:14:33;;;;;;;6.03;4.60;;;;;;;9.85;48.22;100471.06;10282514;28;20254;-72
2021/05/07 18:19:49;;;;;;;7.25;4.57;;;;;;;9.55;49.33;100479.63;10312770;28;20380;-72
2021/05/07 18:24:51;;;;;;;5.82;5.20;;;;;;;9.70;48.00;100483.81;10313053;28;20895;-72
2021/05/07 18:29:54;;;;;;;5.50;4.43;;;;;;;9.77;47.75;100476.16;10311075;28;20242;-72
2021/05/07 18:34:56;;;;;;;5.38;4.72;;;;;;;9.80;47.74;100483.97;10309637;28;20235;-72
2021/05/07 18:39:59;;;;;;;6.45;4.60;;;;;;;9.77;48.06;100489.59;10312082;28;20239;-72
2021/05/07 18:45:01;;;;;;;8.73;4.72;;;;;;;9.71;48.84;100498.94;10312103;28;20284;-72
2021/05/07 18:50:06;;;;;;;6.35;4.03;;;;;;;9.53;49.54;100501.19;10284963;28;20260;-72
2021/05/07 18:55:11;;;;;;;5.93;5.32;;;;;;;9.30;49.49;100505.56;10231626;28;20247;-72
2021/05/07 19:00:14;;;;;;;6.65;5.00;;;;;;;9.19;49.21;100510.88;10238101;28;20236;-72
2021/05/07 19:05:17;;;;;;;5.53;4.95;;;;;;;9.13;49.82;100509.47;10232499;28;20232;-72
2021/05/07 19:10:19;;;;;;;8.02;4.63;;;;;;;9.05;49.76;100520.78;10243981;28;20233;-72
2021/05/07 19:15:21;;;;;;;6.13;4.43;;;;;;;8.95;50.42;100524.22;10277229;28;20238;-72
2021/05/07 19:20:23;;;;;;;5.03;4.03;;;;;;;8.84;49.88;100527.66;10310364;28;20548;-71
2021/05/07 19:25:25;;;;;;;5.63;4.18;;;;;;;8.83;49.75;100534.84;10270984;28;20248;-72
2021/05/07 19:30:30;;;;;;;7.53;4.38;;;;;;;8.80;49.08;100536.88;10270480;28;20247;-72
2021/05/07 19:35:33;;;;;;;10.63;5.40;;;;;;;8.83;49.01;100542.00;10269466;28;20712;-72
2021/05/07 19:40:35;;;;;;;7.47;4.30;;;;;;;8.83;49.12;100548.25;10268636;28;20240;-72
2021/05/07 19:45:37;;;;;;;8.55;5.00;;;;;;;8.84;49.37;100554.47;10283039;28;20649;-72
2021/05/07 19:50:40;;;;;;;6.43;4.03;;;;;;;8.82;50.14;100553.69;10263687;28;20244;-72
2021/05/07 19:55:42;;;;;;;6.63;5.05;;;;;;;8.85;49.98;100553.47;10247557;28;20248;-72
2021/05/07 20:00:44;;;;;;;6.10;4.97;;;;;;;8.74;50.07;100554.25;10233751;28;20236;-72
2021/05/07 20:05:49;;;;;;;6.20;4.85;;;;;;;8.67;50.98;100558.34;10247276;28;20236;-71
2021/05/07 20:10:51;;;;;;;7.53;4.88;;;;;;;8.60;51.68;100573.09;10235372;28;20239;-73
2021/05/07 20:15:53;;;;;;;5.85;5.00;;;;;;;8.55;51.87;100575.25;10269842;28;20292;-72
2021/05/07 20:20:57;;;;;;;7.85;5.50;;;;;;;8.39;52.57;100572.72;10306664;28;20241;-73
2021/05/07 20:25:59;;;;;;;9.13;6.22;;;;;;;8.11;52.94;100576.44;10275150;28;20266;-72
2021/05/07 20:31:01;;;;;;;7.55;5.75;;;;;;;8.17;53.33;100586.72;10267632;28;20242;-71
2021/05/07 20:36:04;;;;;;;7.10;5.63;;;;;;;7.98;53.25;100584.47;10239883;28;20266;-72
2021/05/07 20:41:06;;;;;;;6.82;6.05;;;;;;;7.84;53.35;100587.16;10227686;28;20236;-70
2021/05/07 20:46:08;;;;;;;6.82;5.80;;;;;;;7.70;54.10;100585.41;10229913;28;20229;-70
2021/05/07 20:51:11;;;;;;;9.50;6.00;;;;;;;7.71;53.66;100585.31;10244506;28;20235;-70
2021/05/07 20:56:13;;;;;;;8.98;5.90;;;;;;;7.64;53.67;100586.66;10254396;28;20258;-71
2021/05/07 21:01:15;;;;;;;8.32;5.50;;;;;;;7.63;53.62;100595.66;10267894;28;20673;-71
2021/05/07 21:06:18;;;;;;;8.95;5.95;;;;;;;7.51;54.10;100601.78;10267843;28;20235;-71
2021/05/07 21:11:19;;;;;;;5.88;5.28;;;;;;;7.35;54.42;100593.94;10268856;28;20248;-70
2021/05/07 21:16:23;;;;;;;9.25;5.70;;;;;;;7.23;54.68;100600.03;10289884;28;20450;-71
2021/05/07 21:21:26;;;;;;;10.63;5.78;;;;;;;7.15;55.06;100610.34;10306216;28;20254;-70
2021/05/07 21:26:28;;;;;;;6.57;5.68;;;;;;;7.12;54.14;100608.75;10252727;28;20713;-71
2021/05/07 21:31:30;;;;;;;7.47;5.78;;;;;;;7.12;53.70;100615.91;10265880;28;20293;-71
2021/05/07 21:36:35;;;;;;;6.65;5.40;;;;;;;7.10;52.69;100617.81;10268289;28;20327;-71
2021/05/07 21:41:37;;;;;;;7.40;5.70;;;;;;;7.10;52.41;100620.47;10266625;28;20255;-71
2021/05/07 21:46:41;;;;;;;9.18;6.28;;;;;;;7.06;52.26;100620.66;10243040;28;20259;-71
2021/05/07 21:51:45;;;;;;;6.80;5.30;;;;;;;7.04;51.92;100621.72;10228076;28;20250;-71
2021/05/07 21:56:47;;;;;;;7.90;5.65;;;;;;;7.00;52.45;100633.56;10227845;28;20259;-71
2021/05/07 22:01:49;;;;;;;10.10;5.70;;;;;;;6.82;52.94;100628.34;10229524;28;20756;-71
2021/05/07 22:06:52;;;;;;;10.40;5.82;;;;;;;6.57;54.40;100630.81;10239877;28;20247;-71
2021/05/07 22:11:54;;;;;;;7.05;5.25;;;;;;;6.38;55.01;100639.06;10249875;28;20243;-71
2021/05/07 22:16:56;;;;;;;9.20;6.00;;;;;;;6.42;54.73;100637.94;10257982;28;20262;-71
2021/05/07 22:21:59;;;;;;;7.40;6.28;;;;;;;6.45;54.51;100642.22;10270096;28;20377;-71
2021/05/07 22:27:01;;;;;;;7.80;6.47;;;;;;;6.45;54.38;100640.41;10272099;28;20920;-71
2021/05/07 22:32:04;;;;;;;10.07;6.40;;;;;;;6.47;54.45;100648.31;10270789;28;20232;-71
2021/05/07 22:37:06;;;;;;;8.73;6.57;;;;;;;6.16;55.85;100650.13;10271684;28;20901;-71
2021/05/07 22:42:09;;;;;;;9.40;6.88;;;;;;;6.05;56.62;100665.91;10270081;28;20251;-71
2021/05/07 22:47:11;;;;;;;10.93;6.85;;;;;;;6.05;56.56;100669.41;10271461;28;20752;-71
2021/05/07 22:52:13;;;;;;;9.43;7.20;;;;;;;6.04;56.38;100682.88;10272315;28;20731;-71
2021/05/07 22:57:17;;;;;;;11.38;7.03;;;;;;;5.84;56.96;100673.31;10270602;28;20236;-71
2021/05/07 23:02:19;;;;;;;11.82;7.38;;;;;;;5.89;56.83;100677.44;10270312;28;20236;-71
2021/05/07 23:07:22;;;;;;;10.07;7.45;;;;;;;5.82;56.45;100678.75;10270737;28;20232;-71
2021/05/07 23:12:25;;;;;;;9.50;6.95;;;;;;;5.75;56.64;100665.84;10268355;28;20228;-71
2021/05/07 23:17:28;;;;;;;11.77;7.15;;;;;;;5.67;57.02;100675.13;10301742;28;20246;-71
2021/05/07 23:22:32;;;;;;;9.20;7.00;;;;;;;5.55;57.27;100669.63;10311007;28;21523;-71